Time;durP1;ratioP1;P1;durP2;ratioP2;P2;SDS_P1;SDS_P2;PMS_P1;PMS_P2;Temp;Humidity;BMP_temperature;BMP_pressure;BME280_temperature;BME280_humidity;BME280_pressure;Samples;Min_cycle;Max_cycle;Signal;HPM_P1;HPM_P2
2023/11/28 00:00:14;;;;;;;;;;;;;;;5.00;100.00;97213.63;6275553;22;19998;-84
2023/11/28 00:02:39;;;;;;;;;;;;;;;4.96;100.00;97212.94;6275582;22;19915;-84
2023/11/28 00:05:05;;;;;;;;;;;;;;;4.97;100.00;97213.81;6277603;22;20308;-84
2023/11/28 00:07:33;;;;;;;;;;;;;;;4.97;100.00;97219.06;6277666;22;20370;-86
2023/11/28 00:09:58;;;;;;;;;;;;;;;4.99;100.00;97209.28;6248769;22;19911;-87
2023/11/28 00:12:24;;;;;;;;;;;;;;;4.96;100.00;97212.94;6250623;22;19911;-84
2023/11/28 00:14:49;;;;;;;;;;;;;;;4.96;100.00;97207.69;6250342;22;19916;-87
2023/11/28 00:17:15;;;;;;;;;;;;;;;4.93;100.00;97213.16;6250454;22;20243;-84
2023/11/28 00:19:40;;;;;;;;;;;;;;;4.88;100.00;97215.19;6277671;22;20378;-84
2023/11/28 00:22:05;;;;;;;;;;;;;;;4.90;100.00;97206.31;6277481;22;20216;-85
2023/11/28 00:24:30;;;;;;;;;;;;;;;4.87;100.00;97211.72;6249230;22;19915;-84
2023/11/28 00:26:56;;;;;;;;;;;;;;;4.90;100.00;97205.47;6245866;22;19942;-84
2023/11/28 00:29:21;;;;;;;;;;;;;;;4.91;100.00;97213.25;6250712;22;19915;-85
2023/11/28 00:31:46;;;;;;;;;;;;;;;4.95;100.00;97216.53;6277329;22;19911;-84
2023/11/28 00:34:11;;;;;;;;;;;;;;;4.90;100.00;97210.72;6250352;22;19915;-88
2023/11/28 09:04:22;;;;;;;;;;;;;;;4.74;100.00;98194.69;6246584;23;19930;-89
2023/11/28 09:06:47;;;;;;;;;;;;;;;4.57;100.00;98208.56;6219887;23;20334;-91
2023/11/28 09:09:13;;;;;;;;;;;;;;;4.45;100.00;98209.06;6245487;23;19912;-89
2023/11/28 09:11:38;;;;;;;;;;;;;;;4.41;100.00;98223.25;6247208;23;19912;-89
2023/11/28 09:14:13;;;;;;;;;;;;;;;;;;;;;
2023/11/28 09:16:39;;;;;;;;;;;;;;;4.38;100.00;98224.22;6247209;23;19991;-91
2023/11/28 09:19:04;;;;;;;;;;;;;;;4.39;100.00;98231.19;6219670;23;19958;-90
2023/11/28 09:24:58;;;;;;;;;;;;;;;4.37;100.00;98230.38;6245848;23;19911;-90
2023/11/28 09:27:29;;;;;;;;;;;;;;;4.36;100.00;98240.03;6220482;23;19915;-91
2023/11/28 09:30:27;;;;;;;;;;;;;;;4.40;100.00;98247.75;6246756;23;19927;-94
2023/11/28 09:33:34;;;;;;;;;;;;;;;;;;;;;
2023/11/28 09:39:12;;;;;;;;;;;;;;;4.47;100.00;98270.22;6118095;23;19987;-87
2023/11/28 09:41:38;;;;;;;;;;;;;;;4.45;100.00;98270.28;6244571;23;20319;-87
2023/11/28 09:47:15;;;;;;;;;;;;;;;4.45;100.00;98293.88;6094769;23;19917;-91
2023/11/28 09:49:49;;;;;;;;;;;;;;;4.43;100.00;98297.47;6094684;23;19920;-92
2023/11/28 09:52:15;;;;;;;;;;;;;;;4.43;100.00;98305.34;6172866;23;19915;-93
2023/11/28 09:54:40;;;;;;;;;;;;;;;4.46;100.00;98311.31;6246309;23;19918;-92
2023/11/28 09:57:31;;;;;;;;;;;;;;;4.45;100.00;98324.47;6246543;23;19916;-90
2023/11/28 10:00:05;;;;;;;;;;;;;;;4.47;100.00;98334.00;6219023;23;20394;-91
2023/11/28 10:02:44;;;;;;;;;;;;;;;;;;;;;
2023/11/28 10:05:50;;;;;;;;;;;;;;;4.46;100.00;98337.53;6246106;23;19998;-90
2023/11/28 10:08:23;;;;;;;;;;;;;;;4.50;100.00;98339.13;6244638;23;19920;-88
2023/11/28 10:10:58;;;;;;;;;;;;;;;4.49;100.00;98345.28;6244812;23;19912;-89
2023/11/28 10:14:08;;;;;;;;;;;;;;;4.48;100.00;98342.72;6219195;23;19915;-90
2023/11/28 10:16:42;;;;;;;;;;;;;;;4.48;100.00;98361.94;6244828;23;19943;-87
2023/11/28 10:19:29;;;;;;;;;;;;;;;4.50;100.00;98369.72;6245434;23;19915;-89
2023/11/28 10:21:57;;;;;;;;;;;;;;;4.44;100.00;98370.00;6244959;23;19994;-91
2023/11/28 10:27:26;;;;;;;;;;;;;;;;;;;;;
2023/11/28 10:30:02;;;;;;;;;;;;;;;4.49;100.00;98381.16;6245975;23;20294;-90
2023/11/28 10:38:45;;;;;;;;;;;;;;;4.50;100.00;98373.22;6234504;22;19923;-91
2023/11/28 10:41:17;;;;;;;;;;;;;;;4.52;100.00;98381.88;6190533;22;20335;-89
2023/11/28 10:43:45;;;;;;;;;;;;;;;4.52;100.00;98392.38;6249546;22;20057;-89
2023/11/28 10:46:14;;;;;;;;;;;;;;;4.55;100.00;98389.63;6250192;22;19907;-91
2023/11/28 10:48:39;;;;;;;;;;;;;;;4.55;100.00;98400.13;6277777;22;19911;-87
2023/11/28 10:51:05;;;;;;;;;;;;;;;4.62;100.00;98405.13;6272446;22;19938;-86
2023/11/28 10:53:33;;;;;;;;;;;;;;;4.61;100.00;98398.16;6188746;23;19949;-87
2023/11/28 10:56:32;;;;;;;;;;;;;;;4.59;100.00;98408.72;6187797;23;19916;-92
2023/11/28 10:58:59;;;;;;;;;;;;;;;4.54;100.00;98410.69;6069882;23;20408;-89
2023/11/28 11:01:30;;;;;;;;;;;;;;;4.55;100.00;98405.38;6181332;23;19912;-90
2023/11/28 11:03:55;;;;;;;;;;;;;;;4.55;100.00;98407.16;6187160;23;19912;-89
2023/11/28 11:06:23;;;;;;;;;;;;;;;4.54;100.00;98416.75;6215695;23;19955;-88
2023/11/28 11:08:52;;;;;;;;;;;;;;;4.56;100.00;98421.94;6218635;23;20308;-91
2023/11/28 11:11:18;;;;;;;;;;;;;;;4.51;100.00;98427.38;6218452;23;19916;-90
2023/11/28 11:13:55;;;;;;;;;;;;;;;4.51;100.00;98437.03;6245394;23;19912;-91
2023/11/28 11:16:32;;;;;;;;;;;;;;;4.50;100.00;98437.94;6245758;23;19986;-89
2023/11/28 11:19:00;;;;;;;;;;;;;;;4.54;100.00;98440.38;6218785;23;19915;-90
2023/11/28 11:22:03;;;;;;;;;;;;;;;;;;;;;
2023/11/28 11:24:29;;;;;;;;;;;;;;;4.55;100.00;98436.84;6244874;23;20030;-89
2023/11/28 11:26:56;;;;;;;;;;;;;;;4.56;100.00;98445.56;6244917;23;19963;-90
2023/11/28 11:29:24;;;;;;;;;;;;;;;4.56;100.00;98442.94;6245363;23;19915;-91
2023/11/28 11:32:00;;;;;;;;;;;;;;;4.53;100.00;98443.06;6245717;23;20482;-90
2023/11/28 11:34:35;;;;;;;;;;;;;;;4.57;100.00;98449.91;6245507;23;19947;-90
2023/11/28 11:37:08;;;;;;;;;;;;;;;4.60;100.00;98454.19;6211398;23;20283;-92
2023/11/28 11:39:39;;;;;;;;;;;;;;;4.57;100.00;98463.03;6217163;23;20002;-87
2023/11/28 11:42:17;;;;;;;;;;;;;;;4.59;100.00;98462.97;6245122;23;19962;-91
2023/11/28 11:45:20;;;;;;;;;;;;;;;4.57;100.00;98463.03;6266830;22;19919;-88
2023/11/28 11:59:03;;;;;;;;;;;;;;;4.65;100.00;98473.22;6258818;22;19920;-96
2023/11/28 12:04:30;;;;;;;;;;;;;;;4.64;100.00;98479.38;6184802;23;19943;-93
2023/11/28 12:16:30;;;;;;;;;;;;;;;4.69;100.00;98480.03;6122380;23;20344;-93
2023/11/28 12:19:09;;;;;;;;;;;;;;;4.66;100.00;98490.66;6124305;23;20078;-90
2023/11/28 12:21:54;;;;;;;;;;;;;;;4.70;100.00;98489.63;6111095;23;19920;-92
2023/11/28 12:24:28;;;;;;;;;;;;;;;4.66;100.00;98490.66;6094052;23;20371;-91
2023/11/28 12:26:56;;;;;;;;;;;;;;;4.70;100.00;98493.09;6121543;23;19913;-91
2023/11/28 12:29:22;;;;;;;;;;;;;;;4.70;100.00;98498.34;6124213;23;19923;-92
2023/11/28 12:38:52;;;;;;;;;;;;;;;;;;;;;
2023/11/28 12:47:24;;;;;;;;;;;;;;;4.71;100.00;98520.22;6051125;23;19913;-92
2023/11/28 12:50:20;;;;;;;;;;;;;;;4.75;100.00;98521.78;6058640;23;19924;-93
2023/11/28 13:01:45;;;;;;;;;;;;;;;4.75;100.00;98532.28;5816496;24;19917;-92
2023/11/28 13:07:16;;;;;;;;;;;;;;;4.75;100.00;98537.53;6017107;23;19915;-90
2023/11/28 13:09:41;;;;;;;;;;;;;;;4.75;100.00;98537.53;6092316;23;19914;-88
2023/11/28 13:12:10;;;;;;;;;;;;;;;4.76;100.00;98541.88;6094723;23;19917;-90
2023/11/28 13:14:40;;;;;;;;;;;;;;;4.80;100.00;98547.84;6095866;23;19921;-91
2023/11/28 13:17:08;;;;;;;;;;;;;;;4.82;100.00;98549.50;6219141;22;19918;-88
2023/11/28 13:19:43;;;;;;;;;;;;;;;;;;;;;
2023/11/28 13:22:29;;;;;;;;;;;;;;;4.84;100.00;98563.44;6276641;22;20005;-90
2023/11/28 13:25:05;;;;;;;;;;;;;;;4.84;100.00;98558.19;6248375;22;19953;-89
2023/11/28 13:27:30;;;;;;;;;;;;;;;4.88;100.00;98567.66;6277307;22;20009;-90
2023/11/28 13:29:56;;;;;;;;;;;;;;;4.86;100.00;98571.25;6276766;22;20332;-90
2023/11/28 13:32:32;;;;;;;;;;;;;;;4.86;100.00;98566.00;6222513;23;19924;-91
2023/11/28 13:35:11;;;;;;;;;;;;;;;4.82;100.00;98574.88;6218975;23;19912;-90
2023/11/28 13:37:39;;;;;;;;;;;;;;;4.82;100.00;98575.75;6219911;23;19911;-88
2023/11/28 13:40:37;;;;;;;;;;;;;;;4.86;100.00;98579.13;6218764;23;19919;-92
2023/11/28 13:43:40;;;;;;;;;;;;;;;4.84;100.00;98579.16;6216696;23;19908;-92
2023/11/28 13:46:09;;;;;;;;;;;;;;;4.86;100.00;98593.09;6169975;23;19958;-91
2023/11/28 13:48:36;;;;;;;;;;;;;;;4.88;100.00;98593.03;6246649;23;19914;-92
2023/11/28 13:51:04;;;;;;;;;;;;;;;4.86;100.00;98593.09;6246050;23;19930;-90
2023/11/28 14:05:31;;;;;;;;;;;;;;;4.89;100.00;98598.22;6244111;22;19920;-93
2023/11/28 14:07:58;;;;;;;;;;;;;;;4.97;100.00;98600.56;6241852;23;19946;-90
2023/11/28 14:10:28;;;;;;;;;;;;;;;4.94;100.00;98613.78;6244055;23;19916;-90
2023/11/28 14:12:59;;;;;;;;;;;;;;;4.94;100.00;98615.56;6218824;23;19943;-92
2023/11/28 14:15:27;;;;;;;;;;;;;;;4.96;100.00;98618.97;6219242;23;19950;-91
2023/11/28 14:18:03;;;;;;;;;;;;;;;4.95;100.00;98627.78;6219519;23;19915;-92
2023/11/28 14:20:37;;;;;;;;;;;;;;;4.93;100.00;98619.97;6219024;23;20002;-90
2023/11/28 14:23:08;;;;;;;;;;;;;;;4.97;100.00;98625.97;6211794;23;19916;-89
2023/11/28 14:28:54;;;;;;;;;;;;;;;4.91;100.00;98627.91;6275707;22;19954;-92
2023/11/28 14:31:23;;;;;;;;;;;;;;;4.94;100.00;98634.78;6213209;22;19915;-90
2023/11/28 14:33:58;;;;;;;;;;;;;;;4.91;100.00;98638.41;6249500;22;19912;-90
2023/11/28 14:36:38;;;;;;;;;;;;;;;4.90;100.00;98643.72;6276133;22;19911;-94
2023/11/28 14:39:15;;;;;;;;;;;;;;;4.94;100.00;98647.06;6276643;22;19965;-91
2023/11/28 14:41:40;;;;;;;;;;;;;;;4.95;100.00;98647.03;6237647;22;19914;-89
2023/11/28 14:44:23;;;;;;;;;;;;;;;4.95;100.00;98654.03;6276207;22;19915;-92
2023/11/28 14:46:57;;;;;;;;;;;;;;;4.97;100.00;98655.69;6266902;22;20319;-90
2023/11/28 14:49:25;;;;;;;;;;;;;;;4.98;100.00;98664.41;6249221;22;20230;-90
2023/11/28 14:51:51;;;;;;;;;;;;;;;4.96;100.00;98666.25;6248873;22;19958;-88
2023/11/28 14:54:16;;;;;;;;;;;;;;;4.94;100.00;98668.06;6275409;22;19911;-87
2023/11/28 14:56:41;;;;;;;;;;;;;;;4.95;100.00;98675.06;6248713;22;19907;-90
2023/11/28 14:59:06;;;;;;;;;;;;;;;4.99;100.00;98676.63;6248897;22;20323;-87
2023/11/28 15:01:35;;;;;;;;;;;;;;;4.99;100.00;98687.97;6248954;22;19911;-86
2023/11/28 15:04:02;;;;;;;;;;;;;;;4.99;100.00;98687.13;6250204;22;19911;-89
2023/11/28 15:06:28;;;;;;;;;;;;;;;5.01;100.00;98690.53;6248681;22;19915;-85
2023/11/28 15:08:54;;;;;;;;;;;;;;;4.99;100.00;98692.38;6248741;22;19914;-88
2023/11/28 15:11:39;;;;;;;;;;;;;;;5.01;100.00;98688.78;6247677;22;19919;-87
2023/11/28 15:14:12;;;;;;;;;;;;;;;5.00;100.00;98694.09;6247516;22;20221;-88
2023/11/28 15:16:53;;;;;;;;;;;;;;;5.04;100.00;98700.94;6275457;22;19921;-88
2023/11/28 15:19:23;;;;;;;;;;;;;;;5.02;100.00;98705.41;6248569;22;19957;-91
2023/11/28 15:21:49;;;;;;;;;;;;;;;5.00;100.00;98710.69;6248657;22;19919;-87
2023/11/28 15:24:25;;;;;;;;;;;;;;;5.01;100.00;98707.19;6248096;22;19911;-87
2023/11/28 15:26:54;;;;;;;;;;;;;;;4.98;100.00;98714.28;6249028;22;20346;-91
2023/11/28 15:29:26;;;;;;;;;;;;;;;4.98;100.00;98725.66;6248488;22;19920;-91
2023/11/28 15:31:55;;;;;;;;;;;;;;;4.97;100.00;98723.94;6275395;22;19918;-90
2023/11/28 15:34:24;;;;;;;;;;;;;;;4.95;100.00;98727.56;6248424;22;19919;-90
2023/11/28 15:36:49;;;;;;;;;;;;;;;4.96;100.00;98729.25;6276014;22;19919;-91
2023/11/28 15:39:17;;;;;;;;;;;;;;;4.94;100.00;98734.56;6247588;22;19918;-89
2023/11/28 15:41:42;;;;;;;;;;;;;;;4.97;100.00;98736.22;6247572;22;19930;-90
2023/11/28 15:44:17;;;;;;;;;;;;;;;4.98;100.00;98748.41;6274938;22;19961;-90
2023/11/28 15:46:45;;;;;;;;;;;;;;;4.99;100.00;98742.25;6275471;22;19922;-89
2023/11/28 15:49:13;;;;;;;;;;;;;;;4.97;100.00;98749.34;6248863;22;19911;-89
2023/11/28 15:51:49;;;;;;;;;;;;;;;4.99;100.00;98750.13;6248372;22;19912;-90
2023/11/28 15:54:22;;;;;;;;;;;;;;;4.96;100.00;98748.47;6248143;22;19921;-90
2023/11/28 15:56:48;;;;;;;;;;;;;;;4.96;100.00;98755.50;6275661;22;19911;-92
2023/11/28 15:59:14;;;;;;;;;;;;;;;4.97;100.00;98765.09;6248542;22;19918;-91
2023/11/28 16:01:43;;;;;;;;;;;;;;;4.99;100.00;98761.50;6248959;22;20002;-90
2023/11/28 16:04:08;;;;;;;;;;;;;;;4.95;100.00;98759.06;6248735;22;19918;-90
2023/11/28 16:06:36;;;;;;;;;;;;;;;4.95;100.00;98759.91;6248302;22;19994;-90
2023/11/28 16:09:02;;;;;;;;;;;;;;;4.95;100.00;98765.16;6275480;22;19915;-89
2023/11/28 16:11:27;;;;;;;;;;;;;;;4.94;100.00;98771.31;6246881;22;19915;-89
2023/11/28 16:13:54;;;;;;;;;;;;;;;4.99;100.00;98777.25;6276035;22;20372;-89
2023/11/28 16:16:19;;;;;;;;;;;;;;;4.99;100.00;98784.28;6248502;22;20061;-89
2023/11/28 16:18:55;;;;;;;;;;;;;;;4.99;100.00;98792.16;6248414;22;19961;-91
2023/11/28 16:21:21;;;;;;;;;;;;;;;4.99;100.00;98789.53;6249042;22;19911;-86
2023/11/28 16:23:46;;;;;;;;;;;;;;;4.97;100.00;98792.19;6248229;22;19911;-90
2023/11/28 16:26:19;;;;;;;;;;;;;;;4.99;100.00;98792.16;6247105;22;20210;-91
2023/11/28 16:28:47;;;;;;;;;;;;;;;4.99;100.00;98797.41;6275313;22;19922;-89
2023/11/28 16:31:19;;;;;;;;;;;;;;;4.98;100.00;98807.06;6248729;22;20234;-90
2023/11/28 16:33:44;;;;;;;;;;;;;;;4.98;100.00;98806.19;6276159;22;19915;-90
2023/11/28 16:36:11;;;;;;;;;;;;;;;4.99;100.00;98802.66;6275731;22;20044;-91
2023/11/28 16:38:42;;;;;;;;;;;;;;;4.98;100.00;98812.31;6275387;22;19915;-91
2023/11/28 16:41:08;;;;;;;;;;;;;;;4.98;100.00;98806.19;6246820;22;19958;-90
2023/11/28 16:43:37;;;;;;;;;;;;;;;4.97;100.00;98812.34;6275339;22;19916;-90
2023/11/28 16:46:05;;;;;;;;;;;;;;;5.02;100.00;98820.91;6249232;22;20323;-89
2023/11/28 16:48:33;;;;;;;;;;;;;;;5.01;100.00;98820.06;6250103;22;19911;-89
2023/11/28 16:51:01;;;;;;;;;;;;;;;5.00;100.00;98826.22;6250038;22;20323;-89
2023/11/28 16:53:29;;;;;;;;;;;;;;;5.00;100.00;98822.75;6276962;22;19915;-89
2023/11/28 16:55:59;;;;;;;;;;;;;;;5.01;100.00;98834.94;6248389;22;19911;-89
2023/11/28 16:58:44;;;;;;;;;;;;;;;5.03;100.00;98828.75;6226326;22;20522;-89
2023/11/28 17:01:12;;;;;;;;;;;;;;;5.00;100.00;98835.88;6250171;22;19915;-89
2023/11/28 17:03:37;;;;;;;;;;;;;;;5.03;100.00;98846.28;6249836;22;19916;-85
2023/11/28 17:06:06;;;;;;;;;;;;;;;5.01;100.00;98838.44;6277214;22;19954;-83
2023/11/28 17:08:32;;;;;;;;;;;;;;;4.98;100.00;98835.06;6250013;22;19918;-83
2023/11/28 17:10:57;;;;;;;;;;;;;;;4.98;100.00;98837.69;6275365;22;19915;-86
2023/11/28 17:13:23;;;;;;;;;;;;;;;5.03;100.00;98838.41;6277025;22;19916;-87
2023/11/28 17:15:49;;;;;;;;;;;;;;;5.03;100.00;98843.66;6249860;22;19915;-86
2023/11/28 17:18:14;;;;;;;;;;;;;;;5.00;100.00;98846.38;6250153;22;20600;-89
2023/11/28 17:23:51;;;;;;;;;;;;;;;5.01;100.00;98843.69;6247436;22;19919;-87
2023/11/28 17:26:16;;;;;;;;;;;;;;;5.01;100.00;98858.56;6248850;22;20331;-85
2023/11/28 17:28:42;;;;;;;;;;;;;;;5.01;100.00;98858.56;6249520;22;19996;-90
2023/11/28 17:31:08;;;;;;;;;;;;;;;4.99;100.00;98857.78;6276957;22;19957;-88
2023/11/28 17:33:35;;;;;;;;;;;;;;;5.02;100.00;98857.69;6277162;22;19912;-87
2023/11/28 17:36:00;;;;;;;;;;;;;;;5.01;100.00;98854.22;6249696;22;19915;-88
2023/11/28 17:38:43;;;;;;;;;;;;;;;5.03;100.00;98857.63;6277201;22;19917;-88
2023/11/28 17:41:14;;;;;;;;;;;;;;;5.02;100.00;98861.16;6247880;22;19915;-86
2023/11/28 17:43:40;;;;;;;;;;;;;;;5.04;100.00;98858.47;6277105;22;19982;-87
2023/11/28 17:46:11;;;;;;;;;;;;;;;5.04;100.00;98864.59;6249383;22;19947;-87
2023/11/28 17:48:36;;;;;;;;;;;;;;;5.04;100.00;98867.22;6249664;22;19919;-89
2023/11/28 17:51:01;;;;;;;;;;;;;;;5.04;100.00;98867.22;6276625;22;19947;-88
2023/11/28 17:53:40;;;;;;;;;;;;;;;5.03;100.00;98870.75;6249664;22;19922;-88
2023/11/28 17:56:11;;;;;;;;;;;;;;;5.02;100.00;98869.03;6275286;22;20272;-88
2023/11/28 18:01:45;;;;;;;;;;;;;;;5.02;100.00;98870.81;6276595;22;19987;-88
2023/11/28 18:04:19;;;;;;;;;;;;;;;4.99;100.00;98866.50;6276888;22;19915;-88
2023/11/28 18:11:47;;;;;;;;;;;;;;;5.02;100.00;98870.81;6185137;23;19920;-88
2023/11/28 18:14:15;;;;;;;;;;;;;;;5.02;100.00;98868.19;6180076;23;20229;-90
2023/11/28 18:16:50;;;;;;;;;;;;;;;5.04;100.00;98875.09;6159305;23;19999;-90
2023/11/28 18:19:18;;;;;;;;;;;;;;;5.03;100.00;98873.38;6185544;23;19913;-90
2023/11/28 18:21:46;;;;;;;;;;;;;;;5.02;100.00;98878.69;6159291;23;19972;-88
2023/11/28 18:24:14;;;;;;;;;;;;;;;5.04;100.00;98879.47;6159365;23;19916;-90
2023/11/28 18:26:42;;;;;;;;;;;;;;;5.05;100.00;98883.84;6157948;23;19912;-90
2023/11/28 18:32:10;;;;;;;;;;;;;;;5.03;100.00;98883.88;6185334;23;19951;-89
2023/11/28 18:34:35;;;;;;;;;;;;;;;5.04;100.00;98874.22;6158912;23;19912;-88
2023/11/28 18:37:03;;;;;;;;;;;;;;;5.05;100.00;98881.22;6159357;23;19917;-88
2023/11/28 18:39:32;;;;;;;;;;;;;;;5.04;100.00;98879.47;6158251;23;19912;-91
2023/11/28 18:41:57;;;;;;;;;;;;;;;5.04;100.00;98885.59;6158634;23;19995;-89
2023/11/28 18:44:34;;;;;;;;;;;;;;;5.04;100.00;98884.72;6158840;23;20333;-90
2023/11/28 18:47:05;;;;;;;;;;;;;;;5.02;100.00;98884.78;6185472;23;19948;-90
2023/11/28 18:49:53;;;;;;;;;;;;;;;5.03;100.00;98883.03;6159711;23;19918;-90
2023/11/28 18:52:24;;;;;;;;;;;;;;;5.04;100.00;98879.47;6184663;23;19919;-92
2023/11/28 18:54:54;;;;;;;;;;;;;;;5.04;100.00;98874.22;6157355;23;19913;-89
2023/11/28 18:57:26;;;;;;;;;;;;;;;5.05;100.00;98879.44;6159061;23;20313;-89
2023/11/28 19:00:04;;;;;;;;;;;;;;;5.05;100.00;98881.22;6158685;23;19966;-90
2023/11/28 19:02:29;;;;;;;;;;;;;;;5.08;100.00;98886.34;6185289;23;19912;-89
2023/11/28 19:04:57;;;;;;;;;;;;;;;5.08;100.00;98889.81;6158493;23;19941;-89
2023/11/28 19:07:22;;;;;;;;;;;;;;;5.07;100.00;98889.88;6122665;23;20230;-89
2023/11/28 19:09:47;;;;;;;;;;;;;;;5.07;100.00;98897.75;6096951;23;19913;-88
2023/11/28 19:12:13;;;;;;;;;;;;;;;5.08;100.00;98881.94;6155973;23;19916;-90
2023/11/28 19:14:40;;;;;;;;;;;;;;;5.12;100.00;98894.97;6157153;23;20360;-88
2023/11/28 19:17:08;;;;;;;;;;;;;;;5.10;100.00;98895.03;6157149;23;19912;-89
2023/11/28 19:19:38;;;;;;;;;;;;;;;5.10;100.00;98900.28;6157304;23;20269;-89
2023/11/28 19:22:04;;;;;;;;;;;;;;;5.10;100.00;98897.66;6182061;23;20368;-88
2023/11/28 19:24:34;;;;;;;;;;;;;;;5.12;100.00;98903.69;6155895;23;19947;-90
2023/11/28 19:27:00;;;;;;;;;;;;;;;5.11;100.00;98902.00;6157050;23;19987;-88
2023/11/28 19:29:29;;;;;;;;;;;;;;;5.12;100.00;98910.72;6182182;23;20341;-89
2023/11/28 19:31:55;;;;;;;;;;;;;;;5.11;100.00;98917.75;6198419;23;20355;-89
2023/11/28 19:34:27;;;;;;;;;;;;;;;5.12;100.00;98916.81;6213432;23;19912;-90
2023/11/28 19:37:03;;;;;;;;;;;;;;;;;;;;;
2023/11/28 19:39:34;;;;;;;;;;;;;;;5.12;100.00;98919.44;6213880;23;19991;-91
2023/11/28 19:41:59;;;;;;;;;;;;;;;5.15;100.00;98908.00;6213466;23;19912;-88
2023/11/28 19:44:27;;;;;;;;;;;;;;;5.15;100.00;98908.00;6213826;23;19965;-91
2023/11/28 19:47:13;;;;;;;;;;;;;;;5.17;100.00;98914.03;6214315;23;20324;-91
2023/11/28 19:49:57;;;;;;;;;;;;;;;;;;;;;
2023/11/28 19:52:35;;;;;;;;;;;;;;;5.17;100.00;98920.19;6214845;23;19995;-89
2023/11/28 19:55:14;;;;;;;;;;;;;;;5.18;100.00;98926.28;6226899;22;19927;-89
2023/11/28 20:00:38;;;;;;;;;;;;;;;5.17;100.00;98928.06;6271150;22;19966;-90
2023/11/28 20:03:03;;;;;;;;;;;;;;;5.17;100.00;98927.19;6273746;22;19998;-88
2023/11/28 20:05:56;;;;;;;;;;;;;;;5.17;100.00;98921.94;6275884;22;19922;-86
2023/11/28 20:08:26;;;;;;;;;;;;;;;5.15;100.00;98927.22;6275961;22;19946;-88
2023/11/28 20:10:52;;;;;;;;;;;;;;;5.16;100.00;98934.22;6274059;22;19970;-88
2023/11/28 20:13:19;;;;;;;;;;;;;;;5.19;100.00;98931.47;6248452;22;19911;-89
2023/11/28 20:15:44;;;;;;;;;;;;;;;5.16;100.00;98926.34;6248504;22;19913;-85
2023/11/28 20:18:10;;;;;;;;;;;;;;;5.15;100.00;98921.97;6275782;22;20243;-84
2023/11/28 20:20:35;;;;;;;;;;;;;;;5.18;100.00;98923.66;6248982;22;20287;-85
2023/11/28 20:23:00;;;;;;;;;;;;;;;5.18;100.00;98914.00;6250345;22;20334;-90
2023/11/28 20:25:26;;;;;;;;;;;;;;;5.18;100.00;98914.00;6249830;22;19993;-90
2023/11/28 20:27:52;;;;;;;;;;;;;;;5.20;100.00;98916.56;6250165;22;20400;-90
2023/11/28 20:30:20;;;;;;;;;;;;;;;5.19;100.00;98914.88;6277438;22;20267;-91
2023/11/28 20:32:50;;;;;;;;;;;;;;;5.20;100.00;98912.19;6250374;22;19911;-90
2023/11/28 20:35:24;;;;;;;;;;;;;;;5.18;100.00;98908.75;6277200;22;19912;-89
2023/11/28 20:37:56;;;;;;;;;;;;;;;5.22;100.00;98901.63;6250222;22;19911;-90
2023/11/28 20:40:22;;;;;;;;;;;;;;;5.22;100.00;98904.25;6248759;22;19923;-88
2023/11/28 20:42:47;;;;;;;;;;;;;;;5.21;100.00;98908.63;6277272;22;19934;-90
2023/11/28 20:45:15;;;;;;;;;;;;;;;5.21;100.00;98907.78;6250226;22;19994;-90
2023/11/28 20:47:41;;;;;;;;;;;;;;;5.20;100.00;98913.94;6277567;22;19915;-90
2023/11/28 20:50:09;;;;;;;;;;;;;;;5.21;100.00;98915.66;6250035;22;19984;-91
2023/11/28 20:52:34;;;;;;;;;;;;;;;5.24;100.00;98907.69;6249947;22;19964;-91
2023/11/28 20:54:59;;;;;;;;;;;;;;;5.22;100.00;98920.03;6275810;22;19935;-90
2023/11/28 20:57:27;;;;;;;;;;;;;;;5.24;100.00;98913.78;6276327;22;21614;-89
2023/11/28 20:59:52;;;;;;;;;;;;;;;5.22;100.00;98907.75;6244978;23;19926;-90
2023/11/28 21:02:18;;;;;;;;;;;;;;;5.26;100.00;98905.84;6246719;22;19916;-90
2023/11/28 21:04:44;;;;;;;;;;;;;;;5.23;100.00;98895.44;6250443;22;19931;-90
2023/11/28 21:07:09;;;;;;;;;;;;;;;5.29;100.00;98905.75;6250132;22;19918;-85
2023/11/28 21:09:35;;;;;;;;;;;;;;;5.41;100.00;98896.59;6275807;22;19915;-90
2023/11/28 21:12:00;;;;;;;;;;;;;;;5.32;100.00;98889.03;6250257;22;19978;-91
2023/11/28 21:14:38;;;;;;;;;;;;;;;5.29;100.00;98900.50;6277336;22;19915;-91
2023/11/28 21:17:16;;;;;;;;;;;;;;;5.28;100.00;98897.03;6250199;22;19920;-93
2023/11/28 21:19:42;;;;;;;;;;;;;;;5.27;100.00;98900.53;6277129;22;19964;-90
2023/11/28 21:22:07;;;;;;;;;;;;;;;5.31;100.00;98895.19;6276686;22;19957;-90
2023/11/28 21:24:35;;;;;;;;;;;;;;;5.27;100.00;98892.66;6248997;22;19915;-90
2023/11/28 21:27:00;;;;;;;;;;;;;;;5.30;100.00;98885.59;6276963;22;19911;-91
2023/11/28 21:29:28;;;;;;;;;;;;;;;5.29;100.00;98890.00;6250304;22;19981;-90
2023/11/28 21:31:55;;;;;;;;;;;;;;;5.31;100.00;98889.94;6249855;22;19994;-90
2023/11/28 21:34:21;;;;;;;;;;;;;;;5.29;100.00;98890.00;6250533;22;19919;-91
2023/11/28 21:36:54;;;;;;;;;;;;;;;5.30;100.00;98891.72;6249978;22;20209;-90
2023/11/28 21:39:19;;;;;;;;;;;;;;;5.27;100.00;98892.66;6249418;22;19912;-91
2023/11/28 21:41:46;;;;;;;;;;;;;;;5.28;100.00;98889.13;6249263;22;19929;-90
2023/11/28 21:44:11;;;;;;;;;;;;;;;5.28;100.00;98896.13;6250123;22;19927;-90
2023/11/28 21:46:40;;;;;;;;;;;;;;;5.26;100.00;98896.22;6250073;22;19911;-90
2023/11/28 21:49:05;;;;;;;;;;;;;;;5.28;100.00;98888.25;6249647;22;19919;-90
2023/11/28 21:51:31;;;;;;;;;;;;;;;5.27;100.00;98894.44;6249408;22;20217;-90
2023/11/28 21:53:56;;;;;;;;;;;;;;;5.27;100.00;98891.81;6250055;22;19922;-90
2023/11/28 21:56:22;;;;;;;;;;;;;;;5.27;100.00;98892.66;6248583;22;19919;-91
2023/11/28 21:58:51;;;;;;;;;;;;;;;5.28;100.00;98893.50;6276922;22;19922;-91
2023/11/28 22:01:17;;;;;;;;;;;;;;;5.27;100.00;98892.66;6250156;22;20319;-88
2023/11/28 22:03:43;;;;;;;;;;;;;;;5.29;100.00;98900.50;6249648;22;19969;-91
2023/11/28 22:12:07;;;;;;;;;;;;;;;5.33;100.00;98895.97;6154887;23;19920;-89
2023/11/28 22:21:17;;;;;;;;;;;;;;;;;;;;;
2023/11/28 22:27:12;;;;;;;;;;;;;;;;;;;;;
2023/11/28 22:29:38;;;;;;;;;;;;;;;5.33;100.00;98895.97;6278964;22;19994;-88
2023/11/28 22:32:36;;;;;;;;;;;;;;;;;;;;;
2023/11/28 22:35:07;;;;;;;;;;;;;;;5.31;100.00;98897.81;6264323;22;20001;-93
2023/11/28 22:38:03;;;;;;;;;;;;;;;;;;;;;
2023/11/28 22:40:39;;;;;;;;;;;;;;;5.30;100.00;98896.09;6261089;22;20403;-91
2023/11/28 22:43:07;;;;;;;;;;;;;;;5.29;100.00;98890.00;6276560;22;19912;-93
2023/11/28 22:45:34;;;;;;;;;;;;;;;5.30;100.00;98901.34;6249693;22;19919;-93
2023/11/28 22:48:02;;;;;;;;;;;;;;;5.31;100.00;98895.19;6276762;22;19916;-92
2023/11/28 22:50:45;;;;;;;;;;;;;;;5.29;100.00;98897.88;6249612;22;19915;-92
2023/11/28 22:53:10;;;;;;;;;;;;;;;5.30;100.00;98889.09;6212453;23;19916;-91
2023/11/28 22:55:37;;;;;;;;;;;;;;;5.27;100.00;98892.66;6211121;23;20047;-90
2023/11/28 22:58:08;;;;;;;;;;;;;;;5.28;100.00;98898.78;6187084;23;19919;-91
2023/11/28 23:00:56;;;;;;;;;;;;;;;5.32;100.00;98896.91;6212623;23;19932;-91
2023/11/28 23:03:24;;;;;;;;;;;;;;;5.32;100.00;98899.53;6143149;23;20229;-90
2023/11/28 23:05:50;;;;;;;;;;;;;;;5.30;100.00;98891.72;6212532;23;19912;-90
2023/11/28 23:08:15;;;;;;;;;;;;;;;5.31;100.00;98887.31;6187548;23;20368;-90
2023/11/28 23:10:42;;;;;;;;;;;;;;;5.31;100.00;98892.56;6210714;23;19920;-91
2023/11/28 23:13:08;;;;;;;;;;;;;;;5.31;100.00;98882.91;6212802;23;19916;-90
2023/11/28 23:15:33;;;;;;;;;;;;;;;5.30;100.00;98880.31;6212641;23;19919;-89
2023/11/28 23:17:58;;;;;;;;;;;;;;;5.30;100.00;98883.84;6224745;22;19918;-91
2023/11/28 23:20:42;;;;;;;;;;;;;;;5.28;100.00;98889.13;6276133;22;20278;-90
2023/11/28 23:23:10;;;;;;;;;;;;;;;5.31;100.00;98876.81;6275822;22;19917;-90
2023/11/28 23:25:38;;;;;;;;;;;;;;;5.27;100.00;98881.31;6247492;22;19915;-90
2023/11/28 23:28:04;;;;;;;;;;;;;;;5.31;100.00;98868.91;6276421;22;19955;-89
2023/11/28 23:30:29;;;;;;;;;;;;;;;5.28;100.00;98870.75;6276122;22;20017;-90
2023/11/28 23:32:54;;;;;;;;;;;;;;;5.28;100.00;98868.13;6248641;22;20281;-88
2023/11/28 23:35:29;;;;;;;;;;;;;;;5.32;100.00;98868.03;6275829;22;19911;-90
2023/11/28 23:37:59;;;;;;;;;;;;;;;5.30;100.00;98862.81;6248878;22;19912;-88
2023/11/28 23:40:24;;;;;;;;;;;;;;;5.29;100.00;98861.09;6247443;22;19912;-88
2023/11/28 23:42:49;;;;;;;;;;;;;;;5.30;100.00;98868.06;6275722;22;19964;-89